createdAt,value
2023-03-14T00:00:38.140Z,11.10
2023-03-14T00:01:41.497Z,11.10
2023-03-14T00:02:44.111Z,11.10
2023-03-14T00:03:47.799Z,11.10
2023-03-14T00:04:55.055Z,11.10
2023-03-14T00:05:58.494Z,11.10
2023-03-14T00:07:00.977Z,11.10
2023-03-14T00:08:04.557Z,11.10
2023-03-14T00:09:08.184Z,11.10
2023-03-14T00:10:14.488Z,11.10
2023-03-14T00:11:21.108Z,11.10
2023-03-14T00:12:23.790Z,11.10
2023-03-14T00:13:27.282Z,11.10
2023-03-14T00:14:29.844Z,11.20
2023-03-14T00:15:35.081Z,11.20
2023-03-14T00:16:38.035Z,11.20
2023-03-14T00:17:41.870Z,11.20
2023-03-14T00:18:44.600Z,11.20
2023-03-14T00:19:48.056Z,11.20
2023-03-14T00:20:51.916Z,11.20
2023-03-14T00:21:55.436Z,11.20
2023-03-14T00:22:57.865Z,11.20
2023-03-14T00:24:02.842Z,11.20
2023-03-14T00:25:07.556Z,11.20
2023-03-14T00:26:13.458Z,11.20
2023-03-14T00:27:16.298Z,11.20
2023-03-14T00:28:55.104Z,11.20
2023-03-14T00:30:00.773Z,11.20
2023-03-14T00:31:06.048Z,11.20
2023-03-14T00:32:09.760Z,11.20
2023-03-14T00:33:13.208Z,11.20
2023-03-14T00:34:17.406Z,11.10
2023-03-14T00:35:20.847Z,11.10
2023-03-14T00:36:25.283Z,11.10
2023-03-14T00:37:28.967Z,11.10
2023-03-14T00:38:34.207Z,11.10
2023-03-14T00:39:37.788Z,11.10
2023-03-14T00:40:41.164Z,11.10
2023-03-14T00:41:44.832Z,11.10
2023-03-14T00:42:47.258Z,11.00
2023-03-14T00:43:51.636Z,11.00
2023-03-14T00:44:54.143Z,11.00
2023-03-14T00:45:58.344Z,11.00
2023-03-14T00:47:03.111Z,11.00
2023-03-14T00:48:06.617Z,11.00
2023-03-14T00:49:09.211Z,11.00
2023-03-14T00:50:13.429Z,11.00
2023-03-14T00:51:17.446Z,11.00
2023-03-14T00:52:21.440Z,11.00
2023-03-14T00:53:24.994Z,11.00
2023-03-14T00:54:28.266Z,11.00
2023-03-14T00:55:31.763Z,11.00
2023-03-14T00:56:35.246Z,11.00
2023-03-14T00:57:39.958Z,10.90
2023-03-14T00:58:43.789Z,10.90
2023-03-14T00:59:47.160Z,10.90
2023-03-14T01:00:50.851Z,10.90
2023-03-14T01:01:53.634Z,10.90
2023-03-14T01:02:57.021Z,10.80
2023-03-14T01:03:59.984Z,10.80
2023-03-14T01:05:03.732Z,10.80
2023-03-14T01:06:12.819Z,10.80
2023-03-14T01:07:16.292Z,10.80
2023-03-14T01:08:20.117Z,10.80
2023-03-14T01:09:23.492Z,10.70
2023-03-14T01:10:26.254Z,10.70
2023-03-14T01:11:32.454Z,10.70
2023-03-14T01:12:34.897Z,10.70
2023-03-14T01:13:40.265Z,10.70
2023-03-14T01:14:42.795Z,10.70
2023-03-14T01:15:46.186Z,10.60
2023-03-14T01:16:48.777Z,10.60
2023-03-14T01:17:52.237Z,10.60
2023-03-14T01:18:54.916Z,10.60
2023-03-14T01:20:01.902Z,10.60
2023-03-14T01:21:11.470Z,10.50
2023-03-14T01:22:18.623Z,10.50
2023-03-14T01:23:23.004Z,10.50
2023-03-14T01:24:26.686Z,10.40
2023-03-14T01:25:29.349Z,10.40
2023-03-14T01:26:35.580Z,10.40
2023-03-14T01:27:38.513Z,10.40
2023-03-14T01:28:43.006Z,10.30
2023-03-14T01:29:45.881Z,10.30
2023-03-14T01:30:49.341Z,10.30
2023-03-14T01:31:51.944Z,10.30
2023-03-14T01:32:55.621Z,10.30
2023-03-14T01:33:58.292Z,10.30
2023-03-14T01:35:01.854Z,10.20
2023-03-14T01:36:08.771Z,10.20
2023-03-14T01:37:12.929Z,10.20
2023-03-14T01:38:15.965Z,10.20
2023-03-14T01:39:21.301Z,10.20
2023-03-14T01:40:24.269Z,10.20
2023-03-14T01:41:28.636Z,10.20
2023-03-14T01:42:34.368Z,10.20
2023-03-14T01:43:38.076Z,10.20
2023-03-14T01:44:53.030Z,10.20
2023-03-14T01:46:30.540Z,10.20
2023-03-14T01:47:34.532Z,10.20
2023-03-14T01:48:41.480Z,10.20
2023-03-14T01:49:46.714Z,10.20
2023-03-14T01:50:49.732Z,10.20
2023-03-14T01:51:58.931Z,10.20
2023-03-14T01:53:01.240Z,10.20
2023-03-14T01:54:12.011Z,10.20
2023-03-14T01:55:21.467Z,10.20
2023-03-14T01:56:24.739Z,10.20
2023-03-14T01:57:33.926Z,10.20
2023-03-14T01:58:36.607Z,10.20
2023-03-14T01:59:42.774Z,10.20
2023-03-14T02:00:45.492Z,10.20
2023-03-14T02:01:52.815Z,10.20
2023-03-14T02:03:00.595Z,10.20
2023-03-14T02:04:07.650Z,10.20
2023-03-14T02:05:12.628Z,10.20
2023-03-14T02:06:19.737Z,10.20
2023-03-14T02:07:31.003Z,10.20
2023-03-14T02:08:49.387Z,10.20
2023-03-14T02:09:58.308Z,10.20
2023-03-14T02:11:08.313Z,10.20
2023-03-14T02:12:24.944Z,10.20
2023-03-14T02:13:42.967Z,10.20
2023-03-14T02:15:01.952Z,10.20
2023-03-14T02:16:24.607Z,10.20
2023-03-14T02:17:51.960Z,10.20
2023-03-14T02:19:19.943Z,10.20
2023-03-14T02:20:48.705Z,10.20
2023-03-14T02:22:04.048Z,10.20
2023-03-14T02:23:14.255Z,10.20
2023-03-14T02:24:27.692Z,10.20
2023-03-14T02:25:45.902Z,10.20
2023-03-14T02:28:18.431Z,10.20
2023-03-14T02:29:23.408Z,10.20
2023-03-14T02:30:30.285Z,10.20
2023-03-14T02:31:33.876Z,10.20
2023-03-14T02:32:42.067Z,10.20
2023-03-14T02:33:44.838Z,10.20
2023-03-14T02:34:52.957Z,10.10
2023-03-14T02:36:00.253Z,10.10
2023-03-14T02:37:04.130Z,10.10
2023-03-14T02:38:19.163Z,10.10
2023-03-14T02:39:30.668Z,10.10
2023-03-14T02:40:34.167Z,10.10
2023-03-14T02:41:37.139Z,10.10
2023-03-14T02:42:42.761Z,10.10
2023-03-14T02:43:46.644Z,10.10
2023-03-14T02:45:16.331Z,10.10
2023-03-14T02:46:22.653Z,10.00
2023-03-14T02:47:31.734Z,10.10
2023-03-14T02:48:40.897Z,10.00
2023-03-14T02:49:47.135Z,10.00
2023-03-14T02:50:53.436Z,10.00
2023-03-14T02:51:57.330Z,10.00
2023-03-14T02:53:00.106Z,10.00
2023-03-14T02:54:04.076Z,10.00
2023-03-14T02:55:08.327Z,10.00
2023-03-14T02:56:13.455Z,10.00
2023-03-14T02:57:16.237Z,10.00
2023-03-14T02:58:21.000Z,10.00
2023-03-14T02:59:28.994Z,10.00
2023-03-14T03:00:36.383Z,10.00
2023-03-14T03:01:40.680Z,10.00
2023-03-14T03:02:45.376Z,10.00
2023-03-14T03:03:48.793Z,10.00
2023-03-14T03:04:51.152Z,10.00
2023-03-14T03:05:57.463Z,10.00
2023-03-14T03:07:00.944Z,10.00
2023-03-14T03:08:03.829Z,10.00
2023-03-14T03:09:08.417Z,10.00
2023-03-14T03:10:12.529Z,10.00
2023-03-14T03:11:16.292Z,10.00
2023-03-14T03:12:18.779Z,10.00
2023-03-14T03:13:22.845Z,10.00
2023-03-14T03:14:30.325Z,10.00
2023-03-14T03:15:36.737Z,9.90
2023-03-14T03:16:40.165Z,10.00
2023-03-14T03:17:42.724Z,9.90
2023-03-14T03:18:46.284Z,10.00
2023-03-14T03:19:49.087Z,10.00
2023-03-14T03:20:52.500Z,10.00
2023-03-14T03:21:55.011Z,9.90
2023-03-14T03:22:58.388Z,9.90
2023-03-14T03:24:00.798Z,9.90
2023-03-14T03:25:04.420Z,9.90
2023-03-14T03:26:07.635Z,9.90
2023-03-14T03:27:10.996Z,9.90
2023-03-14T03:28:14.082Z,9.90
2023-03-14T03:29:17.697Z,9.90
2023-03-14T03:30:23.081Z,9.90
2023-03-14T03:31:26.480Z,9.90
2023-03-14T03:32:29.593Z,9.90
2023-03-14T03:33:33.044Z,9.90
2023-03-14T03:34:36.064Z,9.90
2023-03-14T03:35:46.486Z,9.90
2023-03-14T03:36:50.122Z,9.90
2023-03-14T03:37:53.598Z,9.90
2023-03-14T03:38:56.964Z,9.90
2023-03-14T03:40:01.594Z,9.90
2023-03-14T03:41:07.377Z,9.90
2023-03-14T03:42:09.778Z,9.90
2023-03-14T03:43:13.145Z,9.90
2023-03-14T03:44:18.421Z,9.90
2023-03-14T03:45:24.667Z,9.90
2023-03-14T03:46:30.933Z,9.90
2023-03-14T03:47:34.562Z,9.90
2023-03-14T03:48:37.685Z,9.90
2023-03-14T03:49:42.439Z,10.00
2023-03-14T03:50:47.231Z,10.00
2023-03-14T03:51:53.266Z,10.00
2023-03-14T03:52:56.107Z,10.00
2023-03-14T03:53:59.724Z,10.00
2023-03-14T03:55:09.768Z,10.00
2023-03-14T03:56:15.479Z,10.00
2023-03-14T03:57:18.713Z,10.00
2023-03-14T03:58:22.053Z,10.00
2023-03-14T03:59:24.740Z,10.00
2023-03-14T04:00:29.875Z,10.00
2023-03-14T04:01:32.316Z,10.00
2023-03-14T04:02:36.991Z,10.00
2023-03-14T04:03:40.055Z,10.00
2023-03-14T04:04:44.076Z,10.00
2023-03-14T04:05:46.639Z,10.00
2023-03-14T04:06:50.537Z,10.00
2023-03-14T04:07:53.070Z,10.00
2023-03-14T04:09:00.953Z,10.10
2023-03-14T04:10:15.692Z,10.10
2023-03-14T04:11:24.711Z,10.10
2023-03-14T04:12:54.214Z,10.10
2023-03-14T04:13:59.889Z,10.10
2023-03-14T04:15:03.447Z,10.10
2023-03-14T04:16:17.652Z,10.10
2023-03-14T04:17:21.825Z,10.10
2023-03-14T04:18:25.919Z,10.10
2023-03-14T04:19:29.548Z,10.10
2023-03-14T04:20:36.830Z,10.10
2023-03-14T04:21:41.655Z,10.10
2023-03-14T04:22:47.854Z,10.10
2023-03-14T04:23:50.585Z,10.10
2023-03-14T04:24:55.129Z,10.10
2023-03-14T04:25:57.902Z,10.10
2023-03-14T04:27:02.369Z,10.10
2023-03-14T04:28:05.170Z,10.10
2023-03-14T04:29:12.111Z,10.10
2023-03-14T04:30:15.455Z,10.10
2023-03-14T04:31:30.801Z,10.10
2023-03-14T04:32:33.252Z,10.10
2023-03-14T04:33:38.156Z,10.10
2023-03-14T04:34:40.741Z,10.10
2023-03-14T04:35:45.403Z,10.10
2023-03-14T04:36:51.241Z,10.10
2023-03-14T04:37:58.049Z,10.10
2023-03-14T04:39:02.186Z,10.10
2023-03-14T04:40:07.300Z,10.10
2023-03-14T04:41:11.234Z,10.10
2023-03-14T04:42:13.705Z,10.10
2023-03-14T04:43:17.053Z,10.10
2023-03-14T04:44:37.244Z,10.10
2023-03-14T04:45:42.979Z,10.10
2023-03-14T04:46:48.770Z,10.10
2023-03-14T04:47:51.978Z,10.10
2023-03-14T04:48:57.710Z,10.10
2023-03-14T04:50:00.291Z,10.10
2023-03-14T04:51:03.839Z,10.00
2023-03-14T04:52:08.826Z,10.00
2023-03-14T04:53:13.647Z,10.00
2023-03-14T04:54:20.689Z,10.00
2023-03-14T04:55:28.216Z,9.90
2023-03-14T04:56:32.708Z,9.90
2023-03-14T04:57:37.940Z,9.90
2023-03-14T04:58:41.124Z,9.90
2023-03-14T04:59:45.212Z,9.90
2023-03-14T05:01:05.614Z,9.80
2023-03-14T05:02:18.066Z,9.80
2023-03-14T05:03:39.020Z,9.80
2023-03-14T05:05:11.722Z,9.80
2023-03-14T05:06:33.905Z,9.70
2023-03-14T05:07:36.346Z,9.70
2023-03-14T05:09:07.131Z,9.70
2023-03-14T05:10:28.239Z,9.60
2023-03-14T05:11:48.972Z,9.60
2023-03-14T05:13:10.475Z,9.60
2023-03-14T05:14:32.908Z,9.60
2023-03-14T05:15:52.082Z,9.60
2023-03-14T05:17:21.407Z,9.60
2023-03-14T05:18:23.810Z,9.50
2023-03-14T05:19:44.457Z,9.50
2023-03-14T05:20:58.160Z,9.50
2023-03-14T05:22:21.990Z,9.50
2023-03-14T05:23:34.056Z,9.50
2023-03-14T05:24:49.624Z,9.50
2023-03-14T05:26:12.317Z,9.40
2023-03-14T05:27:29.719Z,9.40
2023-03-14T05:28:51.662Z,9.40
2023-03-14T05:30:08.756Z,9.40
2023-03-14T05:31:23.017Z,9.30
2023-03-14T05:32:34.905Z,9.30
2023-03-14T05:33:41.672Z,9.30
2023-03-14T05:35:08.644Z,9.30
2023-03-14T05:36:21.413Z,9.30
2023-03-14T05:37:51.095Z,9.30
2023-03-14T05:39:13.434Z,9.20
2023-03-14T05:40:34.968Z,9.20
2023-03-14T05:41:58.644Z,9.20
2023-03-14T05:43:21.369Z,9.20
2023-03-14T05:44:30.836Z,9.20
2023-03-14T05:45:46.044Z,9.20
2023-03-14T05:47:04.811Z,9.10
2023-03-14T05:48:31.092Z,9.10
2023-03-14T05:49:54.864Z,9.10
2023-03-14T05:51:10.063Z,9.10
2023-03-14T05:52:40.124Z,9.10
2023-03-14T05:54:03.468Z,9.10
2023-03-14T05:55:27.345Z,9.10
2023-03-14T05:56:32.379Z,9.10
2023-03-14T05:57:56.424Z,9.10
2023-03-14T05:59:20.265Z,9.10
2023-03-14T06:00:35.875Z,9.10
2023-03-14T06:01:53.689Z,9.10
2023-03-14T06:03:01.324Z,9.10
2023-03-14T06:04:09.658Z,9.10
2023-03-14T06:05:13.666Z,9.00
2023-03-14T06:06:17.738Z,9.00
2023-03-14T06:07:21.280Z,9.00
2023-03-14T06:08:25.669Z,9.00
2023-03-14T06:09:28.195Z,9.00
2023-03-14T06:10:34.838Z,8.90
2023-03-14T06:11:37.268Z,8.90
2023-03-14T06:12:45.198Z,8.90
2023-03-14T06:13:47.703Z,8.90
2023-03-14T06:14:51.480Z,8.80
2023-03-14T06:15:53.901Z,8.80
2023-03-14T06:16:57.537Z,8.80
2023-03-14T06:18:01.810Z,8.80
2023-03-14T06:19:05.723Z,8.70
2023-03-14T06:20:12.295Z,8.70
2023-03-14T06:21:17.840Z,8.70
2023-03-14T06:22:21.639Z,8.70
2023-03-14T06:23:25.623Z,8.60
2023-03-14T06:24:29.568Z,8.60
2023-03-14T06:25:31.962Z,8.60
2023-03-14T06:26:35.390Z,8.50
2023-03-14T06:27:37.752Z,8.50
2023-03-14T06:28:41.423Z,8.50
2023-03-14T06:29:44.717Z,8.40
2023-03-14T06:30:48.198Z,8.40
2023-03-14T06:31:52.417Z,8.40
2023-03-14T06:32:56.560Z,8.40
2023-03-14T06:34:00.190Z,8.40
2023-03-14T06:35:08.044Z,8.40
2023-03-14T06:36:15.030Z,8.40
2023-03-14T06:37:21.167Z,8.30
2023-03-14T06:38:24.703Z,8.30
2023-03-14T06:39:32.438Z,8.30
2023-03-14T06:40:46.211Z,8.30
2023-03-14T06:41:52.900Z,8.30
2023-03-14T06:42:56.660Z,8.30
2023-03-14T06:44:00.467Z,8.20
2023-03-14T06:45:04.154Z,8.20
2023-03-14T06:46:07.416Z,8.20
2023-03-14T06:47:12.444Z,8.20
2023-03-14T06:48:20.003Z,8.20
2023-03-14T06:49:28.946Z,8.20
2023-03-14T06:50:33.721Z,8.20
2023-03-14T06:51:38.793Z,8.20
2023-03-14T06:52:49.126Z,8.20
2023-03-14T06:53:57.369Z,8.20
2023-03-14T06:55:02.912Z,8.20
2023-03-14T06:56:08.572Z,8.20
2023-03-14T06:57:12.330Z,8.10
2023-03-14T06:58:14.936Z,8.10
2023-03-14T06:59:21.574Z,8.10
2023-03-14T07:00:26.071Z,8.10
2023-03-14T07:01:33.616Z,8.10
2023-03-14T07:02:43.461Z,8.10
2023-03-14T07:03:59.113Z,8.10
2023-03-14T07:05:02.481Z,8.10
2023-03-14T07:06:07.212Z,8.10
2023-03-14T07:07:12.074Z,8.10
2023-03-14T07:08:15.564Z,8.10
2023-03-14T07:09:18.234Z,8.10
2023-03-14T07:10:27.560Z,8.10
2023-03-14T07:11:30.152Z,8.10
2023-03-14T07:12:34.290Z,8.10
2023-03-14T07:13:36.827Z,8.10
2023-03-14T07:14:42.980Z,8.10
2023-03-14T07:15:49.067Z,8.10
2023-03-14T07:16:53.282Z,8.10
2023-03-14T07:17:56.033Z,8.10
2023-03-14T07:19:00.808Z,8.00
2023-03-14T07:20:07.308Z,8.00
2023-03-14T07:21:11.822Z,8.00
2023-03-14T07:22:16.543Z,8.00
2023-03-14T07:23:18.914Z,8.00
2023-03-14T07:24:28.008Z,8.00
2023-03-14T07:25:30.818Z,8.00
2023-03-14T07:26:35.033Z,8.00
2023-03-14T07:27:37.676Z,8.00
2023-03-14T07:28:41.319Z,8.00
2023-03-14T07:29:48.539Z,7.90
2023-03-14T07:30:52.071Z,7.90
2023-03-14T07:32:01.275Z,8.00
2023-03-14T07:33:04.885Z,7.90
2023-03-14T07:34:08.443Z,7.90
2023-03-14T07:35:14.599Z,7.90
2023-03-14T07:36:19.574Z,7.90
2023-03-14T07:37:24.667Z,7.90
2023-03-14T07:38:28.652Z,7.90
2023-03-14T07:39:46.877Z,7.90
2023-03-14T07:41:01.195Z,8.00
2023-03-14T07:42:06.293Z,8.00
2023-03-14T07:43:24.013Z,8.00
2023-03-14T07:44:27.829Z,8.00
2023-03-14T07:45:30.398Z,8.00
2023-03-14T07:46:34.085Z,8.00
2023-03-14T07:47:36.805Z,8.00
2023-03-14T07:48:40.209Z,8.00
2023-03-14T07:49:42.580Z,8.00
2023-03-14T07:50:46.500Z,8.00
2023-03-14T07:51:49.441Z,8.00
2023-03-14T07:52:54.288Z,8.00
2023-03-14T07:53:56.646Z,8.00
2023-03-14T07:54:59.988Z,8.00
2023-03-14T07:56:03.483Z,8.00
2023-03-14T07:57:05.921Z,7.90
2023-03-14T07:58:09.464Z,7.90
2023-03-14T07:59:13.241Z,7.90
2023-03-14T08:00:17.847Z,7.90
2023-03-14T08:01:23.147Z,7.90
2023-03-14T08:02:25.709Z,7.90
2023-03-14T08:03:29.522Z,7.80
2023-03-14T08:04:34.723Z,7.80
2023-03-14T08:05:37.653Z,7.70
2023-03-14T08:06:41.161Z,7.70
2023-03-14T08:07:43.629Z,7.70
2023-03-14T08:08:48.454Z,7.60
2023-03-14T08:09:51.938Z,7.50
2023-03-14T08:10:55.316Z,7.50
2023-03-14T08:11:58.800Z,7.50
2023-03-14T08:13:03.392Z,7.40
2023-03-14T08:14:05.816Z,7.40
2023-03-14T08:15:10.354Z,7.40
2023-03-14T08:16:13.863Z,7.30
2023-03-14T08:17:17.356Z,7.30
2023-03-14T08:18:19.759Z,7.30
2023-03-14T08:19:25.332Z,7.30
2023-03-14T08:20:30.375Z,7.30
2023-03-14T08:21:33.825Z,7.30
2023-03-14T08:22:36.333Z,7.30
2023-03-14T08:23:39.770Z,7.30
2023-03-14T08:24:43.667Z,7.30
2023-03-14T08:25:47.122Z,7.30
2023-03-14T08:26:49.809Z,7.30
2023-03-14T08:27:53.327Z,7.30
2023-03-14T08:28:55.768Z,7.30
2023-03-14T08:30:00.257Z,7.30
2023-03-14T08:31:04.492Z,7.30
2023-03-14T08:32:08.505Z,7.30
2023-03-14T08:33:12.145Z,7.30
2023-03-14T08:34:15.471Z,7.20
2023-03-14T08:35:19.447Z,7.20
2023-03-14T08:36:23.890Z,7.20
2023-03-14T08:37:28.182Z,7.20
2023-03-14T08:38:31.281Z,7.20
2023-03-14T08:39:34.874Z,7.20
2023-03-14T08:40:38.741Z,7.20
2023-03-14T08:41:44.053Z,7.20
2023-03-14T08:42:48.079Z,7.30
2023-03-14T08:43:51.554Z,7.30
2023-03-14T08:44:54.181Z,7.40
2023-03-14T08:46:01.168Z,7.40
2023-03-14T08:47:03.871Z,7.50
2023-03-14T08:48:08.096Z,7.60
2023-03-14T08:49:10.690Z,7.70
2023-03-14T08:50:16.572Z,7.90
2023-03-14T08:51:19.222Z,8.00
2023-03-14T08:52:22.836Z,8.20
2023-03-14T08:53:25.314Z,8.30
2023-03-14T08:54:29.009Z,8.30
2023-03-14T08:55:33.036Z,8.40
2023-03-14T08:56:38.817Z,8.50
2023-03-14T08:57:42.399Z,8.60
2023-03-14T08:58:45.919Z,8.60
2023-03-14T08:59:48.425Z,8.70
2023-03-14T09:00:51.992Z,8.70
2023-03-14T09:01:56.318Z,8.80
2023-03-14T09:02:58.976Z,8.80
2023-03-14T09:04:02.746Z,8.80
2023-03-14T09:05:06.641Z,8.80
2023-03-14T09:06:12.219Z,8.80
2023-03-14T09:07:14.744Z,8.80
2023-03-14T09:08:18.287Z,8.80
2023-03-14T09:09:20.795Z,8.80
2023-03-14T09:10:24.195Z,8.80
2023-03-14T09:11:26.561Z,8.80
2023-03-14T09:12:31.979Z,8.80
2023-03-14T09:13:35.503Z,8.80
2023-03-14T09:14:38.537Z,8.90
2023-03-14T09:15:44.329Z,9.00
2023-03-14T09:16:47.770Z,9.10
2023-03-14T09:17:51.307Z,9.10
2023-03-14T09:18:55.400Z,9.20
2023-03-14T09:20:00.565Z,9.20
2023-03-14T09:21:03.314Z,9.20
2023-03-14T09:22:07.053Z,9.20
2023-03-14T09:23:09.535Z,9.20
2023-03-14T09:24:13.001Z,9.20
2023-03-14T09:25:15.419Z,9.20
2023-03-14T09:26:18.974Z,9.20
2023-03-14T09:27:22.604Z,9.20
2023-03-14T09:28:27.904Z,9.20
2023-03-14T09:29:34.456Z,9.20
2023-03-14T09:30:36.881Z,9.20
2023-03-14T09:31:40.415Z,9.20
2023-03-14T09:32:42.950Z,9.20
2023-03-14T09:33:46.685Z,9.20
2023-03-14T09:34:49.146Z,9.20
2023-03-14T09:35:52.616Z,9.20
2023-03-14T09:36:56.209Z,9.10
2023-03-14T09:37:58.545Z,9.10
2023-03-14T09:39:02.051Z,9.10
2023-03-14T09:40:11.639Z,9.20
2023-03-14T09:41:18.644Z,9.20
2023-03-14T09:42:27.614Z,9.20
2023-03-14T09:43:36.821Z,9.20
2023-03-14T09:44:48.903Z,9.20
2023-03-14T09:45:54.025Z,9.20
2023-03-14T09:47:03.203Z,9.10
2023-03-14T09:48:06.582Z,9.10
2023-03-14T09:49:19.326Z,9.10
2023-03-14T09:50:23.178Z,9.10
2023-03-14T09:51:27.111Z,9.00
2023-03-14T09:52:34.638Z,9.00
2023-03-14T09:53:42.253Z,9.00
2023-03-14T09:54:50.269Z,9.00
2023-03-14T09:55:56.231Z,9.00
2023-03-14T09:56:58.972Z,8.90
2023-03-14T09:58:08.455Z,8.90
2023-03-14T09:59:15.055Z,8.90
2023-03-14T10:00:23.058Z,8.80
2023-03-14T10:01:32.409Z,8.80
2023-03-14T10:02:36.810Z,8.80
2023-03-14T10:03:40.479Z,8.70
2023-03-14T10:04:46.586Z,8.70
2023-03-14T10:05:50.195Z,8.60
2023-03-14T10:06:53.542Z,8.60
2023-03-14T10:07:57.137Z,8.50
2023-03-14T10:09:00.584Z,8.50
2023-03-14T10:10:12.943Z,8.40
2023-03-14T10:11:19.015Z,8.40
2023-03-14T10:12:32.447Z,8.30
2023-03-14T10:13:36.198Z,8.30
2023-03-14T10:14:50.134Z,8.20
2023-03-14T10:15:57.153Z,8.20
2023-03-14T10:17:09.400Z,8.20
2023-03-14T10:18:15.787Z,8.20
2023-03-14T10:19:19.074Z,8.20
2023-03-14T10:20:34.621Z,8.30
2023-03-14T10:21:40.631Z,8.30
2023-03-14T10:22:44.405Z,8.40
2023-03-14T10:23:50.106Z,8.50
2023-03-14T10:24:55.224Z,8.60
2023-03-14T10:26:08.543Z,8.60
2023-03-14T10:27:22.984Z,8.70
2023-03-14T10:28:29.627Z,8.80
2023-03-14T10:29:59.428Z,8.90
2023-03-14T10:31:02.740Z,8.90
2023-03-14T10:32:09.647Z,9.10
2023-03-14T10:33:21.228Z,9.20
2023-03-14T10:34:28.232Z,9.20
2023-03-14T10:35:37.400Z,9.40
2023-03-14T10:36:39.832Z,9.40
2023-03-14T10:37:55.392Z,9.50
2023-03-14T10:39:17.901Z,9.50
2023-03-14T10:40:25.095Z,9.60
2023-03-14T10:41:29.550Z,9.60
2023-03-14T10:42:35.605Z,9.50
2023-03-14T10:43:39.852Z,9.50
2023-03-14T10:44:44.602Z,9.50
2023-03-14T10:45:58.845Z,9.40
2023-03-14T10:47:04.351Z,9.30
2023-03-14T10:48:25.977Z,9.30
2023-03-14T10:49:31.155Z,9.20
2023-03-14T10:50:35.011Z,9.20
2023-03-14T10:51:38.458Z,9.10
2023-03-14T10:53:02.193Z,9.10
2023-03-14T10:54:16.239Z,9.10
2023-03-14T10:55:19.794Z,9.10
2023-03-14T10:56:24.813Z,9.10
2023-03-14T10:57:29.351Z,9.10
2023-03-14T10:58:36.251Z,9.10
2023-03-14T10:59:44.666Z,9.20
2023-03-14T11:00:53.711Z,9.20
2023-03-14T11:02:01.930Z,9.40
2023-03-14T11:03:13.610Z,9.60
2023-03-14T11:04:40.604Z,10.00
2023-03-14T11:05:50.737Z,10.50
2023-03-14T11:07:02.097Z,11.10
2023-03-14T11:08:13.384Z,11.60
2023-03-14T11:09:28.450Z,12.30
2023-03-14T11:10:38.552Z,13.00
2023-03-14T11:11:45.797Z,13.70
2023-03-14T11:13:07.834Z,14.40
2023-03-14T11:14:31.171Z,15.10
2023-03-14T11:15:41.124Z,15.80
2023-03-14T11:16:56.108Z,16.40
2023-03-14T11:18:45.245Z,16.90
2023-03-14T11:20:08.977Z,17.40
2023-03-14T11:21:20.400Z,18.00
2023-03-14T11:22:30.694Z,18.30
2023-03-14T11:23:44.396Z,18.40
2023-03-14T11:25:07.085Z,18.50
2023-03-14T11:26:28.227Z,18.60
2023-03-14T11:27:43.996Z,18.90
2023-03-14T11:28:52.528Z,19.20
2023-03-14T11:30:02.596Z,19.40
2023-03-14T11:31:16.783Z,19.70
2023-03-14T11:32:39.129Z,20.00
2023-03-14T11:33:53.313Z,20.10
2023-03-14T11:34:58.449Z,20.30
2023-03-14T11:36:09.050Z,20.50
2023-03-14T11:37:24.052Z,20.80
2023-03-14T11:38:36.573Z,20.90
2023-03-14T11:39:42.751Z,21.10
2023-03-14T11:40:50.132Z,21.30
2023-03-14T11:41:54.953Z,21.50
2023-03-14T11:43:11.898Z,21.50
2023-03-14T11:44:21.923Z,21.50
2023-03-14T11:45:32.642Z,21.50
2023-03-14T11:46:41.351Z,21.50
2023-03-14T11:47:54.044Z,21.50
2023-03-14T11:49:06.096Z,21.40
2023-03-14T11:50:18.919Z,21.30
2023-03-14T11:51:31.729Z,21.00
2023-03-14T11:52:39.624Z,20.80
2023-03-14T11:53:57.522Z,20.70
2023-03-14T11:55:05.056Z,20.50
2023-03-14T11:56:17.138Z,20.40
2023-03-14T11:57:22.653Z,20.30
2023-03-14T11:58:31.324Z,20.20
2023-03-14T11:59:47.649Z,20.00
2023-03-14T12:00:53.706Z,19.90
2023-03-14T12:02:03.089Z,19.70
2023-03-14T12:03:18.514Z,19.50
2023-03-14T12:04:43.511Z,19.30
2023-03-14T12:06:01.618Z,19.10
2023-03-14T12:07:11.553Z,18.80
2023-03-14T12:08:48.938Z,18.60
2023-03-14T12:09:54.305Z,18.40
2023-03-14T12:11:02.458Z,18.20
2023-03-14T12:12:08.818Z,18.00
2023-03-14T12:13:14.055Z,17.90
2023-03-14T12:14:25.882Z,17.80
2023-03-14T12:15:29.173Z,17.80
2023-03-14T12:16:41.581Z,17.90
2023-03-14T12:17:48.016Z,17.90
2023-03-14T12:18:52.745Z,18.00
2023-03-14T12:20:08.534Z,18.10
2023-03-14T12:21:14.827Z,18.20
2023-03-14T12:22:29.902Z,18.40
2023-03-14T12:23:43.532Z,18.50
2023-03-14T12:24:51.037Z,18.50
2023-03-14T12:26:18.385Z,18.60
2023-03-14T12:28:05.228Z,18.70
2023-03-14T12:29:21.503Z,18.80
2023-03-14T12:30:31.153Z,18.80
2023-03-14T12:31:47.500Z,18.90
2023-03-14T12:33:24.187Z,19.00
2023-03-14T12:34:34.093Z,19.10
2023-03-14T12:35:40.855Z,19.30
2023-03-14T12:37:12.599Z,19.40
2023-03-14T12:38:20.041Z,19.40
2023-03-14T12:39:33.958Z,19.50
2023-03-14T12:40:47.861Z,19.60
2023-03-14T12:41:55.052Z,19.60
2023-03-14T12:43:00.405Z,19.60
2023-03-14T12:44:46.864Z,19.70
2023-03-14T12:46:16.917Z,19.70
2023-03-14T12:47:53.337Z,19.80
2023-03-14T12:49:05.666Z,19.80
2023-03-14T12:50:20.060Z,19.80
2023-03-14T12:51:31.424Z,19.80
2023-03-14T12:52:47.271Z,19.80
2023-03-14T12:54:33.534Z,19.80
2023-03-14T12:55:45.560Z,19.80
2023-03-14T12:57:12.812Z,19.70
2023-03-14T12:58:22.954Z,19.60
2023-03-14T12:59:37.426Z,19.40
2023-03-14T13:00:42.735Z,19.20
2023-03-14T13:01:56.478Z,19.00
2023-03-14T13:03:15.429Z,18.80
2023-03-14T13:04:26.255Z,18.70
2023-03-14T13:05:35.524Z,18.60
2023-03-14T13:06:54.996Z,18.50
2023-03-14T13:08:11.640Z,18.50
2023-03-14T13:09:54.101Z,18.50
2023-03-14T13:10:58.507Z,18.60
2023-03-14T13:12:04.644Z,18.60
2023-03-14T13:13:21.684Z,18.60
2023-03-14T13:14:24.686Z,18.70
2023-03-14T13:15:33.629Z,18.70
2023-03-14T13:16:36.975Z,18.70
2023-03-14T13:17:43.588Z,18.70
2023-03-14T13:18:49.936Z,18.70
2023-03-14T13:19:56.750Z,18.80
2023-03-14T13:21:08.674Z,18.80
2023-03-14T13:22:21.939Z,18.80
2023-03-14T13:23:29.145Z,18.70
2023-03-14T13:24:36.005Z,18.60
2023-03-14T13:25:40.050Z,18.60
2023-03-14T13:26:44.714Z,18.50
2023-03-14T13:27:48.988Z,18.50
2023-03-14T13:28:52.504Z,18.40
2023-03-14T13:29:55.151Z,18.30
2023-03-14T13:31:02.633Z,18.20
2023-03-14T13:32:23.382Z,18.20
2023-03-14T13:33:27.549Z,18.10
2023-03-14T13:34:31.722Z,18.10
2023-03-14T13:35:44.442Z,18.10
2023-03-14T13:36:53.540Z,18.00
2023-03-14T13:38:11.599Z,18.00
2023-03-14T13:39:20.532Z,17.90
2023-03-14T13:40:30.629Z,17.80
2023-03-14T13:41:34.393Z,17.70
2023-03-14T13:42:37.558Z,17.50
2023-03-14T13:43:45.745Z,17.40
2023-03-14T13:44:48.545Z,17.10
2023-03-14T13:45:58.196Z,16.90
2023-03-14T13:47:02.666Z,16.70
2023-03-14T13:48:06.562Z,16.60
2023-03-14T13:49:15.106Z,16.40
2023-03-14T13:50:19.510Z,16.20
2023-03-14T13:51:26.003Z,16.00
2023-03-14T13:52:37.108Z,15.90
2023-03-14T13:53:46.798Z,15.70
2023-03-14T13:54:54.480Z,15.60
2023-03-14T13:55:58.428Z,15.50
2023-03-14T13:57:02.545Z,15.30
2023-03-14T13:58:06.159Z,15.20
2023-03-14T13:59:25.148Z,15.10
2023-03-14T14:00:28.982Z,14.90
2023-03-14T14:01:36.738Z,14.80
2023-03-14T14:02:40.329Z,14.60
2023-03-14T14:03:46.858Z,14.50
2023-03-14T14:04:49.522Z,14.30
2023-03-14T14:05:53.273Z,14.20
2023-03-14T14:06:59.768Z,14.00
2023-03-14T14:08:05.316Z,13.80
2023-03-14T14:09:16.609Z,13.70
2023-03-14T14:10:21.167Z,13.50
2023-03-14T14:11:59.814Z,13.40
2023-03-14T14:13:15.785Z,13.20
2023-03-14T14:14:25.373Z,13.00
2023-03-14T14:15:31.535Z,13.00
2023-03-14T14:16:34.351Z,12.90
2023-03-14T14:17:43.635Z,12.90
2023-03-14T14:18:47.226Z,12.80
2023-03-14T14:19:50.748Z,12.70
2023-03-14T14:20:54.411Z,12.70
2023-03-14T14:21:59.753Z,12.60
2023-03-14T14:23:07.040Z,12.50
2023-03-14T14:24:14.516Z,12.50
2023-03-14T14:25:17.927Z,12.40
2023-03-14T14:26:22.279Z,12.30
2023-03-14T14:27:33.155Z,12.30
2023-03-14T14:28:39.461Z,12.20
2023-03-14T14:29:43.634Z,12.10
2023-03-14T14:30:46.189Z,12.00
2023-03-14T14:31:51.280Z,12.00
2023-03-14T14:33:09.443Z,11.90
2023-03-14T14:34:21.801Z,11.80
2023-03-14T14:35:26.732Z,11.80
2023-03-14T14:36:33.589Z,11.70
2023-03-14T14:37:43.504Z,11.60
2023-03-14T14:38:54.935Z,11.60
2023-03-14T14:40:00.375Z,11.50
2023-03-14T14:41:05.353Z,11.40
2023-03-14T14:42:17.854Z,11.30
2023-03-14T14:43:25.785Z,11.20
2023-03-14T14:44:33.198Z,11.20
2023-03-14T14:45:37.493Z,11.10
2023-03-14T14:46:41.417Z,11.10
2023-03-14T14:47:52.679Z,11.00
2023-03-14T14:48:59.516Z,11.00
2023-03-14T14:50:07.426Z,10.90